Time;durP1;ratioP1;P1;durP2;ratioP2;P2;SDS_P1;SDS_P2;PMS_P1;PMS_P2;Temp;Humidity;BMP_temperature;BMP_pressure;BME280_temperature;BME280_humidity;BME280_pressure;Samples;Min_cycle;Max_cycle;Signal;HPM_P1;HPM_P2
2022/02/27 00:00:12;;;;;;;2.40;2.30;;;;;;;-1.34;94.56;102794.41;6024751;23;20377;-68
2022/02/27 00:02:39;;;;;;;2.60;2.50;;;;;;;-1.38;95.06;102793.47;6024946;23;20015;-69
2022/02/27 00:05:08;;;;;;;2.30;2.20;;;;;;;-1.39;93.92;102801.16;6015154;23;20038;-67
2022/02/27 00:07:34;;;;;;;2.60;2.50;;;;;;;-1.26;93.91;102824.75;5986536;23;20022;-68
2022/02/27 00:10:01;;;;;;;3.33;3.22;;;;;;;-1.66;94.99;102753.13;5999347;23;20954;-67
2022/02/27 00:12:27;;;;;;;3.65;3.45;;;;;;;-1.28;95.32;102816.09;5994894;23;20058;-68
2022/02/27 00:14:54;;;;;;;5.22;4.95;;;;;;;-1.84;95.29;102731.13;6027704;23;20120;-68
2022/02/27 00:17:20;;;;;;;2.50;2.40;;;;;;;-1.76;94.98;102743.34;5991280;23;20092;-68
2022/02/27 00:19:46;;;;;;;4.32;4.13;;;;;;;-1.44;95.73;102807.03;6000268;23;20488;-68
2022/02/27 00:22:14;;;;;;;3.15;3.05;;;;;;;-1.39;96.07;102806.28;6035605;23;20035;-69
2022/02/27 00:24:40;;;;;;;2.45;2.35;;;;;;;-2.78;96.12;102597.75;5981268;23;20358;-70
2022/02/27 00:27:06;;;;;;;3.45;3.33;;;;;;;-1.33;95.99;102821.94;6029328;23;20045;-65
2022/02/27 00:29:33;;;;;;;3.20;3.00;;;;;;;-1.38;95.53;102815.75;6018781;23;20159;-65
2022/02/27 00:31:59;;;;;;;3.30;3.20;;;;;;;-1.39;96.37;102817.47;5995702;23;20159;-65
2022/02/27 00:34:26;;;;;;;3.17;2.97;;;;;;;-1.45;96.78;102818.13;6035479;23;20039;-64
2022/02/27 00:36:52;;;;;;;6.47;6.00;;;;;;;-1.88;96.02;102754.13;6020047;23;20414;-64
2022/02/27 00:39:20;;;;;;;2.20;2.10;;;;;;;-1.50;95.78;102812.00;6008251;23;20049;-65
2022/02/27 00:41:47;;;;;;;3.90;3.75;;;;;;;-1.51;95.68;102812.81;6001875;23;20015;-65
2022/02/27 00:44:13;;;;;;;2.58;2.45;;;;;;;-1.51;95.81;102820.53;6033581;23;20022;-65
2022/02/27 00:46:40;;;;;;;2.35;2.25;;;;;;;-1.54;96.24;102817.88;6011625;23;20019;-65
2022/02/27 00:49:06;;;;;;;2.47;2.38;;;;;;;-1.59;95.92;102808.25;5995270;23;20288;-66
2022/02/27 00:51:32;;;;;;;2.70;2.60;;;;;;;-1.64;95.98;102805.53;6031564;23;20398;-67
2022/02/27 00:53:59;;;;;;;3.60;3.50;;;;;;;-1.67;96.44;102806.28;5998499;23;20035;-66
2022/02/27 00:56:25;;;;;;;2.30;2.20;;;;;;;-1.70;97.22;102798.47;6047779;23;20022;-65
2022/02/27 00:58:52;;;;;;;4.15;3.95;;;;;;;-1.93;96.64;102761.69;5981783;23;20285;-65
2022/02/27 01:01:18;;;;;;;2.40;2.30;;;;;;;-1.68;97.75;102780.50;6023320;23;20028;-67
2022/02/27 01:03:46;;;;;;;4.35;4.15;;;;;;;-2.04;97.52;102709.03;6019401;23;20015;-66
2022/02/27 01:06:13;;;;;;;2.38;2.28;;;;;;;-1.44;97.41;102789.00;6023684;23;20013;-67
2022/02/27 01:08:39;;;;;;;2.50;2.40;;;;;;;-1.51;97.82;102811.94;6024985;23;20023;-69
2022/02/27 01:11:06;;;;;;;2.30;2.20;;;;;;;-1.34;98.63;102797.91;6029205;23;20086;-69
2022/02/27 01:13:32;;;;;;;2.40;2.30;;;;;;;-1.38;98.18;102790.91;6007403;23;20019;-69
2022/02/27 01:15:59;;;;;;;3.78;3.65;;;;;;;-1.43;98.66;102789.88;6030392;23;20061;-69
2022/02/27 01:18:25;;;;;;;2.50;2.40;;;;;;;-1.56;98.15;102782.56;6024258;23;20045;-70
2022/02/27 01:20:52;;;;;;;4.25;4.05;;;;;;;-3.05;98.00;102531.75;6039637;23;20023;-70
2022/02/27 01:23:18;;;;;;;2.20;2.10;;;;;;;-1.54;97.54;102792.13;6019294;23;20386;-70
2022/02/27 01:25:45;;;;;;;3.55;3.40;;;;;;;-2.02;98.31;102707.38;6034591;23;20018;-69
2022/02/27 01:28:11;;;;;;;4.25;4.05;;;;;;;-2.11;97.49;102694.22;6002402;23;20025;-70
2022/02/27 01:30:38;;;;;;;2.40;2.30;;;;;;;-1.74;98.26;102767.44;6009185;23;20553;-69
2022/02/27 01:33:04;;;;;;;2.55;2.45;;;;;;;-2.16;98.06;102688.91;6021252;23;20037;-68
2022/02/27 01:35:30;;;;;;;2.53;2.42;;;;;;;-1.79;97.84;102757.00;6006524;23;20456;-69
2022/02/27 01:37:57;;;;;;;3.90;3.75;;;;;;;-2.11;98.33;102713.06;6025227;23;20071;-69
2022/02/27 01:40:24;;;;;;;2.30;2.20;;;;;;;-1.57;98.03;102811.75;6036643;23;20460;-70
2022/02/27 01:42:51;;;;;;;4.32;4.13;;;;;;;-1.51;98.00;102793.91;6018717;23;20465;-67
2022/02/27 01:45:18;;;;;;;2.63;2.53;;;;;;;-1.62;98.34;102785.84;5993901;23;20033;-69
2022/02/27 01:47:44;;;;;;;3.95;3.78;;;;;;;-1.74;98.12;102778.63;6025361;23;20010;-68
2022/02/27 01:50:11;;;;;;;2.10;2.00;;;;;;;-1.48;98.95;102791.44;6030270;23;20045;-70
2022/02/27 01:52:39;;;;;;;2.38;2.28;;;;;;;-2.11;98.28;102678.78;5983812;23;20383;-71
2022/02/27 01:55:06;;;;;;;2.20;2.10;;;;;;;-1.69;97.99;102750.44;6038188;23;20081;-68
2022/02/27 01:57:34;;;;;;;2.35;2.25;;;;;;;-1.66;98.67;102759.13;6039326;23;20018;-68
2022/02/27 02:00:04;;;;;;;2.47;2.38;;;;;;;-1.91;97.85;102711.16;6021161;23;20026;-70
2022/02/27 02:02:30;;;;;;;2.30;2.20;;;;;;;-1.52;97.84;102787.03;5981322;23;20092;-68
2022/02/27 02:04:57;;;;;;;4.15;3.95;;;;;;;-1.58;98.60;102787.69;6016649;23;20022;-68
2022/02/27 02:07:24;;;;;;;9.35;2.70;;;;;;;-1.58;97.55;102797.09;6000500;23;20103;-67
2022/02/27 02:09:51;;;;;;;4.15;3.95;;;;;;;-1.63;97.63;102790.09;6023025;23;20082;-68
2022/02/27 02:12:18;;;;;;;2.88;2.78;;;;;;;-1.65;97.61;102788.31;6007454;23;20366;-68
2022/02/27 02:14:45;;;;;;;3.75;3.63;;;;;;;-1.90;98.28;102760.94;6019188;23;20050;-69
2022/02/27 02:17:11;;;;;;;2.30;2.20;;;;;;;-2.14;97.72;102730.13;6025990;23;20441;-68
2022/02/27 02:19:38;;;;;;;2.15;2.05;;;;;;;-1.82;97.25;102786.09;6029485;23;20034;-68
2022/02/27 02:22:05;;;;;;;2.30;2.20;;;;;;;-1.89;97.46;102788.41;5983612;23;20047;-68
2022/02/27 02:24:31;;;;;;;2.88;2.78;;;;;;;-1.97;97.66;102782.13;6002069;23;20028;-68
2022/02/27 02:26:58;;;;;;;2.30;2.20;;;;;;;-2.46;97.64;102699.06;6041594;23;20196;-68
2022/02/27 02:29:25;;;;;;;2.72;2.63;;;;;;;-2.44;98.35;102716.28;6000712;23;20015;-69
2022/02/27 02:31:54;;;;;;;4.25;4.05;;;;;;;-2.11;98.27;102776.53;5995519;23;20503;-67
2022/02/27 02:34:23;;;;;;;2.30;2.20;;;;;;;-2.15;98.61;102778.09;6027422;23;20355;-68
2022/02/27 02:36:52;;;;;;;4.65;4.45;;;;;;;-2.21;98.36;102777.91;6027508;23;20520;-68
2022/02/27 02:39:20;;;;;;;2.42;2.33;;;;;;;-2.26;97.70;102776.88;6008248;23;20019;-69
2022/02/27 02:41:47;;;;;;;4.20;4.00;;;;;;;-2.42;98.59;102755.78;6012300;23;20015;-69
2022/02/27 02:44:15;;;;;;;2.30;2.20;;;;;;;-2.34;99.04;102768.91;6036637;23;20078;-68
2022/02/27 02:46:42;;;;;;;2.40;2.30;;;;;;;-2.35;98.71;102771.41;6003446;23;20508;-68
2022/02/27 02:49:10;;;;;;;2.20;2.10;;;;;;;-2.36;97.93;102772.25;6004006;23;20097;-69
2022/02/27 02:51:37;;;;;;;2.40;2.30;;;;;;;-2.39;98.94;102773.00;6038177;23;20021;-68
2022/02/27 02:54:05;;;;;;;2.30;2.20;;;;;;;-2.40;99.74;102766.13;6013763;23;20029;-69
2022/02/27 02:56:31;;;;;;;2.72;2.53;;;;;;;-2.67;98.76;102733.47;6028089;23;20273;-68
2022/02/27 02:58:59;;;;;;;3.58;3.47;;;;;;;-4.04;98.93;102486.41;5992216;23;20030;-67
2022/02/27 03:01:26;;;;;;;2.20;2.10;;;;;;;-2.57;99.47;102744.94;5999229;23;20105;-68
2022/02/27 03:03:54;;;;;;;4.25;4.05;;;;;;;-2.55;98.43;102758.72;6030718;23;20015;-67
2022/02/27 03:06:20;;;;;;;2.20;2.10;;;;;;;-2.58;98.75;102757.78;6002020;23;20097;-69
2022/02/27 03:08:48;;;;;;;4.72;4.53;;;;;;;-3.43;99.00;102623.72;5995472;23;20031;-65
2022/02/27 03:11:16;;;;;;;2.20;2.10;;;;;;;-2.94;99.42;102711.97;6025265;23;20095;-69
2022/02/27 03:13:43;;;;;;;2.55;2.45;;;;;;;-2.70;99.69;102747.94;5996290;23;20089;-70
2022/02/27 03:16:09;;;;;;;2.30;2.20;;;;;;;-2.73;99.99;102752.94;6031707;23;20029;-68
2022/02/27 03:18:36;;;;;;;2.25;2.15;;;;;;;-3.05;100.00;102694.47;6002602;23;20066;-68
2022/02/27 03:21:05;;;;;;;3.08;2.92;;;;;;;-2.79;99.17;102739.88;6035181;23;20102;-68
2022/02/27 03:23:32;;;;;;;2.28;2.17;;;;;;;-3.36;100.00;102679.63;6010716;23;20062;-68
2022/02/27 03:25:59;;;;;;;3.47;3.38;;;;;;;-2.83;99.64;102747.50;6032945;23;20811;-68
2022/02/27 03:28:26;;;;;;;2.10;2.00;;;;;;;-2.84;100.00;102743.16;5998301;23;20496;-68
2022/02/27 03:30:53;;;;;;;4.10;3.90;;;;;;;-3.56;100.00;102622.41;6020749;23;20037;-68
2022/02/27 03:33:20;;;;;;;2.63;2.53;;;;;;;-2.86;100.00;102756.78;5997839;23;20083;-68
2022/02/27 03:35:46;;;;;;;3.13;3.03;;;;;;;-3.18;100.00;102699.09;6029105;23;20019;-68
2022/02/27 03:38:13;;;;;;;2.70;2.60;;;;;;;-2.90;100.00;102732.66;6027580;23;20057;-68
2022/02/27 03:40:40;;;;;;;2.50;2.40;;;;;;;-2.94;100.00;102741.09;6036085;23;20038;-70
2022/02/27 03:43:07;;;;;;;2.13;2.03;;;;;;;-3.42;100.00;102666.56;6030700;23;20029;-68
2022/02/27 03:45:33;;;;;;;2.22;2.13;;;;;;;-3.06;100.00;102732.94;6009087;23;20035;-68
2022/02/27 03:47:59;;;;;;;2.13;2.03;;;;;;;-3.01;100.00;102741.66;6035571;23;20021;-67
2022/02/27 03:50:26;;;;;;;2.10;2.00;;;;;;;-3.04;100.00;102741.56;6039640;23;20402;-67
2022/02/27 03:52:52;;;;;;;2.30;2.20;;;;;;;-3.07;100.00;102749.16;6025299;23;20083;-68
2022/02/27 03:55:19;;;;;;;2.10;2.00;;;;;;;-3.73;100.00;102637.16;6046616;23;20069;-67
2022/02/27 03:57:45;;;;;;;2.30;2.20;;;;;;;-3.12;100.00;102737.84;6012477;23;20468;-68
2022/02/27 04:00:17;;;;;;;2.60;2.40;;;;;;;-3.34;100.00;102708.78;5997437;23;20031;-67
2022/02/27 04:02:48;;;;;;;4.10;3.90;;;;;;;-3.15;100.00;102746.28;6042478;23;20015;-68
2022/02/27 04:05:16;;;;;;;2.00;1.90;;;;;;;-3.15;100.00;102748.00;6021805;23;20038;-68
2022/02/27 04:07:44;;;;;;;3.17;3.08;;;;;;;-3.17;100.00;102744.50;5990574;23;20022;-67
2022/02/27 04:10:12;;;;;;;2.20;2.10;;;;;;;-3.19;100.00;102746.13;6034449;23;20027;-68
2022/02/27 04:12:38;;;;;;;2.00;1.90;;;;;;;-3.21;100.00;102743.50;5999021;23;20203;-70
2022/02/27 04:15:06;;;;;;;4.85;4.47;;;;;;;-3.23;100.00;102750.25;6026340;23;20023;-68
2022/02/27 04:17:32;;;;;;;2.40;2.30;;;;;;;-3.73;100.00;102670.53;6028421;23;20491;-68
2022/02/27 04:19:59;;;;;;;2.65;2.55;;;;;;;-3.27;100.00;102745.84;6003450;23;20015;-68
2022/02/27 04:22:27;;;;;;;2.20;2.10;;;;;;;-3.30;100.00;102741.47;6028180;23;20027;-68
2022/02/27 04:24:54;;;;;;;3.55;3.45;;;;;;;-3.31;100.00;102743.97;6002789;23;20031;-68
2022/02/27 04:27:20;;;;;;;2.00;1.90;;;;;;;-3.33;100.00;102743.91;6026160;23;20246;-68
2022/02/27 04:29:46;;;;;;;3.25;3.15;;;;;;;-3.33;100.00;102737.91;5982115;23;20142;-68
2022/02/27 04:32:13;;;;;;;2.10;2.00;;;;;;;-3.39;100.00;102733.41;6023544;23;20015;-68
2022/02/27 04:34:40;;;;;;;2.13;2.03;;;;;;;-3.72;100.00;102679.97;5998690;23;20025;-68
2022/02/27 04:37:06;;;;;;;2.83;2.72;;;;;;;-3.27;100.00;102761.25;6021207;23;20090;-68
2022/02/27 04:39:36;;;;;;;2.20;2.10;;;;;;;-3.25;100.00;102751.91;6011438;23;20015;-68
2022/02/27 04:42:03;;;;;;;2.53;2.42;;;;;;;-3.83;100.00;102664.19;5969535;23;20035;-68
2022/02/27 04:44:29;;;;;;;2.10;2.00;;;;;;;-4.08;100.00;102626.44;5975341;23;20342;-68
2022/02/27 04:46:56;;;;;;;4.15;3.95;;;;;;;-3.34;100.00;102759.28;5994880;23;20067;-67
2022/02/27 04:49:23;;;;;;;2.30;2.20;;;;;;;-3.39;100.00;102758.22;6002290;23;20023;-67
2022/02/27 04:51:49;;;;;;;3.42;3.33;;;;;;;-3.66;100.00;102726.41;5976840;23;20102;-68
2022/02/27 04:54:15;;;;;;;2.20;2.10;;;;;;;-3.46;100.00;102755.41;6014497;23;20031;-68
2022/02/27 04:56:42;;;;;;;2.63;2.53;;;;;;;-3.54;100.00;102737.97;5971427;23;20445;-68
2022/02/27 04:59:08;;;;;;;2.08;1.98;;;;;;;-3.49;100.00;102747.59;6000415;23;20427;-68
2022/02/27 05:01:35;;;;;;;2.75;2.65;;;;;;;-3.54;100.00;102740.53;5978291;23;20024;-68
2022/02/27 05:04:02;;;;;;;2.30;2.20;;;;;;;-3.49;100.00;102751.84;5962696;23;20395;-68
2022/02/27 05:06:28;;;;;;;2.05;1.95;;;;;;;-3.52;100.00;102750.03;6004703;23;20022;-68
2022/02/27 05:08:54;;;;;;;4.15;3.95;;;;;;;-3.83;100.00;102686.38;5976321;23;20020;-68
2022/02/27 05:11:21;;;;;;;1.98;1.90;;;;;;;-3.51;100.00;102741.50;5997006;23;20101;-68
2022/02/27 05:13:47;;;;;;;3.10;3.00;;;;;;;-4.78;100.00;102532.25;5983608;23;20042;-68
2022/02/27 05:16:14;;;;;;;1.75;1.75;;;;;;;-3.61;100.00;102730.03;5994902;23;20007;-68
2022/02/27 05:18:40;;;;;;;2.47;2.38;;;;;;;-3.55;100.00;102755.03;5985843;23;20027;-68
2022/02/27 05:21:07;;;;;;;1.98;1.90;;;;;;;-3.83;100.00;102694.97;6004409;23;20010;-68
2022/02/27 05:23:33;;;;;;;2.20;2.10;;;;;;;-3.57;100.00;102742.97;5984127;23;20029;-68
2022/02/27 05:25:59;;;;;;;3.38;3.28;;;;;;;-4.43;100.00;102604.53;6011946;23;20158;-68
2022/02/27 05:28:27;;;;;;;2.20;2.10;;;;;;;-3.57;100.00;102740.41;5968200;23;20028;-69
2022/02/27 05:30:54;;;;;;;4.18;3.97;;;;;;;-3.59;100.00;102742.91;5992266;23;20378;-68
2022/02/27 05:33:21;;;;;;;2.00;1.90;;;;;;;-3.61;100.00;102739.41;5972253;23;20034;-68
2022/02/27 05:35:47;;;;;;;4.15;3.83;;;;;;;-4.02;100.00;102669.41;5977080;23;20016;-67
2022/02/27 05:38:14;;;;;;;2.10;2.00;;;;;;;-3.72;100.00;102733.88;6015044;23;20315;-68
2022/02/27 05:40:41;;;;;;;2.05;1.95;;;;;;;-3.66;100.00;102734.09;6031449;23;20050;-69
2022/02/27 05:43:08;;;;;;;2.40;2.30;;;;;;;-3.80;100.00;102714.72;6017388;23;20029;-68
2022/02/27 05:45:34;;;;;;;2.10;2.00;;;;;;;-3.69;100.00;102736.56;6005884;23;20053;-67
2022/02/27 05:48:01;;;;;;;2.08;1.98;;;;;;;-4.30;100.00;102644.34;6025872;23;20110;-67
2022/02/27 05:50:32;;;;;;;2.15;2.05;;;;;;;-3.66;100.00;102733.22;5985860;23;20290;-68
2022/02/27 05:52:59;;;;;;;3.28;3.17;;;;;;;-4.58;100.00;102584.31;6045824;23;20241;-69
2022/02/27 05:55:25;;;;;;;2.10;2.00;;;;;;;-3.62;100.00;102755.63;6032514;23;20057;-69
2022/02/27 05:57:56;;;;;;;3.70;3.58;;;;;;;-3.64;100.00;102745.31;6009085;23;20021;-68
2022/02/27 06:00:23;;;;;;;2.38;2.28;;;;;;;-3.62;100.00;102750.50;5996970;23;20304;-68
2022/02/27 06:02:52;;;;;;;4.03;3.85;;;;;;;-3.63;100.00;102752.19;6032149;23;20116;-68
2022/02/27 06:05:19;;;;;;;2.00;1.90;;;;;;;-3.65;100.00;102748.69;6028395;23;20054;-67
2022/02/27 06:07:45;;;;;;;3.53;3.42;;;;;;;-3.67;100.00;102744.28;6041345;23;20039;-68
2022/02/27 06:10:12;;;;;;;2.10;2.00;;;;;;;-3.69;100.00;102746.81;6031590;23;20022;-68
2022/02/27 06:12:47;;;;;;;2.20;2.10;;;;;;;-3.69;100.00;102751.06;5972470;23;20338;-69
2022/02/27 06:15:14;;;;;;;2.55;2.45;;;;;;;-3.71;100.00;102751.03;6031338;23;20011;-67
2022/02/27 06:17:40;;;;;;;2.10;2.00;;;;;;;-3.70;100.00;102742.50;6000934;23;20095;-70
2022/02/27 06:20:08;;;;;;;2.38;2.28;;;;;;;-3.71;100.00;102748.47;6024282;23;20089;-68
2022/02/27 06:22:39;;;;;;;2.30;2.20;;;;;;;-4.37;100.00;102644.91;6033814;23;20030;-68
2022/02/27 06:25:06;;;;;;;2.03;1.92;;;;;;;-3.73;100.00;102742.34;5998858;23;20535;-68
2022/02/27 06:27:33;;;;;;;2.20;2.10;;;;;;;-4.16;100.00;102653.47;6017897;23;20027;-68
2022/02/27 06:30:00;;;;;;;2.40;2.30;;;;;;;-4.37;100.00;102626.97;5991216;23;20007;-68
2022/02/27 06:32:26;;;;;;;2.10;2.00;;;;;;;-3.89;100.00;102706.66;6026577;23;20090;-69
2022/02/27 06:34:53;;;;;;;4.50;4.30;;;;;;;-4.08;100.00;102671.72;5992726;23;20499;-66
2022/02/27 06:37:19;;;;;;;2.50;2.40;;;;;;;-3.55;100.00;102751.59;6032962;23;20046;-67
2022/02/27 06:39:45;;;;;;;3.72;3.60;;;;;;;-3.88;100.00;102685.34;6034011;23;20017;-66
2022/02/27 06:42:12;;;;;;;2.22;2.13;;;;;;;-3.35;100.00;102750.69;6030263;23;20029;-67
2022/02/27 06:44:39;;;;;;;2.10;2.00;;;;;;;-3.36;100.00;102728.41;6006305;23;20042;-66
2022/02/27 06:47:06;;;;;;;2.10;2.00;;;;;;;-3.08;100.00;102758.56;6031923;23;20033;-66
2022/02/27 06:49:32;;;;;;;2.10;2.00;;;;;;;-3.33;100.00;102695.13;6029236;23;20026;-67
2022/02/27 06:51:58;;;;;;;3.10;3.00;;;;;;;-3.38;100.00;102677.81;6033982;23;20407;-66
2022/02/27 06:54:25;;;;;;;1.90;1.80;;;;;;;-2.81;100.00;102763.84;6020872;23;20015;-66
2022/02/27 06:56:51;;;;;;;3.83;3.67;;;;;;;-2.68;100.00;102765.16;5995401;23;20560;-67
2022/02/27 06:59:19;;;;;;;2.00;1.90;;;;;;;-2.51;100.00;102754.59;6042800;23;20093;-66
2022/02/27 07:01:45;;;;;;;3.38;3.28;;;;;;;-2.32;100.00;102762.13;6018859;23;20523;-66
2022/02/27 07:04:11;;;;;;;2.20;2.10;;;;;;;-2.35;100.00;102732.84;5998601;23;20026;-67
2022/02/27 07:06:38;;;;;;;2.17;2.08;;;;;;;-1.88;100.00;102769.56;6019565;23;20022;-69
2022/02/27 07:09:05;;;;;;;2.15;2.05;;;;;;;-2.12;100.00;102706.19;5998348;23;20848;-69
2022/02/27 07:11:31;;;;;;;2.20;2.10;;;;;;;-1.57;100.00;102773.13;6031058;23;20015;-69
2022/02/27 07:13:57;;;;;;;3.58;3.47;;;;;;;-1.64;100.00;102744.59;5996139;23;20094;-69
2022/02/27 07:16:24;;;;;;;2.20;2.10;;;;;;;-1.44;100.00;102734.91;5999503;23;20030;-69
2022/02/27 07:18:56;;;;;;;3.80;3.65;;;;;;;-1.02;100.00;102767.94;6035317;23;20034;-69
2022/02/27 07:21:23;;;;;;;2.30;2.20;;;;;;;-1.50;99.72;102647.19;5994721;23;20019;-68
2022/02/27 07:23:50;;;;;;;3.72;3.63;;;;;;;-1.63;96.04;102558.41;6004433;23;20460;-69
2022/02/27 07:26:17;;;;;;;2.30;2.20;;;;;;;-0.07;92.83;102768.75;6031119;23;20077;-68
2022/02/27 07:28:44;;;;;;;3.97;3.80;;;;;;;0.21;89.14;102765.16;5997268;23;20082;-70
2022/02/27 07:31:10;;;;;;;2.15;2.05;;;;;;;0.45;85.78;102764.84;6029812;23;20385;-69
2022/02/27 07:33:37;;;;;;;2.30;2.20;;;;;;;0.70;82.77;102767.97;5999226;23;20289;-69
2022/02/27 07:36:03;;;;;;;2.90;2.80;;;;;;;0.97;80.12;102762.53;6008296;23;20010;-69
2022/02/27 07:38:30;;;;;;;2.50;2.40;;;;;;;1.09;78.89;102770.56;5996530;23;20056;-68
2022/02/27 07:40:56;;;;;;;4.40;4.20;;;;;;;1.22;77.61;102769.06;6032952;23;20037;-68
2022/02/27 07:43:23;;;;;;;2.45;2.35;;;;;;;1.34;76.62;102765.84;6031634;23;20057;-69
2022/02/27 07:45:49;;;;;;;4.45;4.25;;;;;;;1.26;75.79;102736.38;6026959;23;20088;-68
2022/02/27 07:48:16;;;;;;;2.83;2.70;;;;;;;1.14;75.41;102711.16;6028704;23;20026;-68
2022/02/27 07:50:43;;;;;;;2.67;2.58;;;;;;;1.59;74.54;102768.06;6018798;23;20342;-69
2022/02/27 07:53:09;;;;;;;2.60;2.50;;;;;;;1.50;74.41;102743.72;5992621;23;20037;-68
2022/02/27 07:55:35;;;;;;;2.40;2.30;;;;;;;1.17;74.34;102686.22;6017601;23;20641;-68
2022/02/27 07:58:02;;;;;;;2.42;2.33;;;;;;;1.77;73.81;102774.44;6005219;23;20330;-68
2022/02/27 08:00:28;;;;;;;3.08;2.97;;;;;;;1.67;74.14;102749.22;6017289;23;20011;-69
2022/02/27 08:02:55;;;;;;;3.75;3.65;;;;;;;1.72;74.37;102742.41;6009471;23;20274;-69
2022/02/27 08:05:22;;;;;;;2.63;2.53;;;;;;;2.06;71.98;102769.72;5995468;23;20279;-67
2022/02/27 08:07:48;;;;;;;4.25;4.05;;;;;;;2.06;71.79;102771.47;6011371;23;20546;-67
2022/02/27 08:10:15;;;;;;;3.85;3.63;;;;;;;2.14;72.39;102769.88;5994283;23;20022;-66
2022/02/27 08:12:43;;;;;;;3.03;2.92;;;;;;;2.25;71.85;102775.25;6032045;23;20333;-67
2022/02/27 08:15:10;;;;;;;2.92;2.83;;;;;;;2.27;71.57;102776.13;5993590;23;20091;-65
2022/02/27 08:17:47;;;;;;;4.22;4.03;;;;;;;2.37;71.26;102770.25;6155973;22;20165;-69
2022/02/27 08:20:13;;;;;;;2.85;2.75;;;;;;;2.45;71.20;102775.53;6145709;23;20021;-69
2022/02/27 08:22:40;;;;;;;2.90;2.80;;;;;;;2.13;71.21;102703.38;6124927;23;20067;-69
2022/02/27 08:25:07;;;;;;;2.95;2.85;;;;;;;2.61;70.68;102777.50;6120475;23;20093;-66
2022/02/27 08:27:34;;;;;;;3.00;2.90;;;;;;;2.03;70.48;102662.66;6138874;23;20277;-66
2022/02/27 08:30:00;;;;;;;3.97;3.78;;;;;;;2.72;70.97;102773.31;6098823;23;20040;-66
2022/02/27 08:32:27;;;;;;;2.83;2.72;;;;;;;2.69;70.28;102744.78;6122483;23;20242;-66
2022/02/27 08:34:53;;;;;;;4.57;4.38;;;;;;;2.48;69.09;102687.47;6111058;23;20090;-65
2022/02/27 08:37:19;;;;;;;2.80;2.70;;;;;;;2.58;70.02;102691.91;6133188;23;20034;-66
2022/02/27 08:39:48;;;;;;;4.18;3.97;;;;;;;3.13;69.47;102775.59;6089274;23;20477;-67
2022/02/27 08:42:15;;;;;;;3.10;3.00;;;;;;;3.20;69.10;102772.22;6136440;23;20025;-66
2022/02/27 08:44:41;;;;;;;3.30;3.20;;;;;;;3.28;68.82;102774.03;6132747;23;20032;-69
2022/02/27 08:47:08;;;;;;;2.90;2.80;;;;;;;3.27;68.82;102770.59;6098595;23;20020;-65
2022/02/27 08:49:35;;;;;;;2.90;2.80;;;;;;;3.08;68.80;102712.41;6144383;23;20453;-67
2022/02/27 08:52:03;;;;;;;2.80;2.70;;;;;;;3.65;66.69;102774.41;6113149;23;20029;-65
2022/02/27 08:54:29;;;;;;;3.00;2.90;;;;;;;3.65;66.50;102771.81;6112950;23;20040;-66
2022/02/27 08:56:56;;;;;;;4.75;4.55;;;;;;;3.78;67.12;102777.16;6104386;23;20276;-68
2022/02/27 08:59:23;;;;;;;3.00;2.88;;;;;;;3.88;67.10;102767.72;6146511;23;20217;-66
2022/02/27 09:01:50;;;;;;;4.78;4.47;;;;;;;3.77;65.83;102739.06;6108364;23;20023;-66
2022/02/27 09:04:16;;;;;;;2.97;2.88;;;;;;;4.04;65.45;102760.94;6118731;23;20030;-65
2022/02/27 09:06:44;;;;;;;3.40;3.30;;;;;;;3.68;64.53;102704.34;6137840;23;20109;-64
2022/02/27 09:09:10;;;;;;;3.00;2.90;;;;;;;4.28;62.69;102760.25;6115052;23;20448;-65
2022/02/27 09:11:37;;;;;;;3.17;3.08;;;;;;;3.87;62.80;102682.88;6144261;23;20085;-65
2022/02/27 09:14:03;;;;;;;4.57;4.28;;;;;;;4.40;63.22;102762.94;6117738;23;20047;-65
2022/02/27 09:16:29;;;;;;;3.08;2.97;;;;;;;3.91;61.79;102671.66;6157194;23;20465;-66
2022/02/27 09:18:56;;;;;;;4.78;4.57;;;;;;;4.33;62.45;102724.78;6128472;23;20360;-66
2022/02/27 09:21:23;;;;;;;3.30;3.20;;;;;;;4.69;63.24;102764.88;6128330;23;20019;-66
2022/02/27 09:23:49;;;;;;;4.47;4.28;;;;;;;4.78;60.72;102774.44;6137499;23;20248;-65
2022/02/27 09:26:15;;;;;;;3.13;3.03;;;;;;;4.90;59.46;102758.03;6125184;23;20098;-66
2022/02/27 09:28:57;;;;;;;3.70;3.60;;;;;;;4.71;60.08;102731.03;6122529;23;20419;-66
2022/02/27 09:31:24;;;;;;;5.25;5.05;;;;;;;4.66;59.16;102723.22;6093830;23;20304;-66
2022/02/27 09:33:51;;;;;;;2.90;2.80;;;;;;;5.07;58.99;102761.59;6100446;23;20438;-66
2022/02/27 09:36:18;;;;;;;6.13;5.82;;;;;;;5.13;59.10;102755.50;6093609;23;20207;-68
2022/02/27 09:38:44;;;;;;;2.95;2.85;;;;;;;4.23;59.15;102602.53;6107240;23;20076;-67
2022/02/27 09:41:12;;;;;;;3.38;3.25;;;;;;;4.93;57.97;102719.00;6131215;23;20224;-68
2022/02/27 09:43:39;;;;;;;3.58;3.40;;;;;;;5.42;58.73;102763.41;6122499;23;20105;-68
2022/02/27 09:46:05;;;;;;;3.17;3.08;;;;;;;5.39;59.14;102760.78;6097278;23;20348;-68
2022/02/27 09:48:33;;;;;;;3.28;3.17;;;;;;;5.45;58.06;102758.19;6133503;23;20059;-68
2022/02/27 09:51:00;;;;;;;3.20;3.10;;;;;;;5.50;58.68;102759.09;6121404;23;20024;-68
2022/02/27 09:53:26;;;;;;;4.45;4.25;;;;;;;5.55;57.70;102752.16;6106772;23;20471;-69
2022/02/27 09:55:52;;;;;;;3.10;3.00;;;;;;;5.16;57.14;102675.69;6104929;23;20020;-68
2022/02/27 09:58:19;;;;;;;4.13;3.92;;;;;;;5.64;57.93;102724.41;6116932;23;20009;-69
2022/02/27 10:00:45;;;;;;;3.08;2.97;;;;;;;6.06;58.35;102759.19;6106243;23;20028;-69
2022/02/27 10:03:14;;;;;;;4.07;3.90;;;;;;;5.88;55.17;102723.53;6100534;23;20629;-69
2022/02/27 10:05:44;;;;;;;3.30;3.20;;;;;;;6.27;55.41;102768.72;6102990;23;20021;-69
2022/02/27 10:08:12;;;;;;;3.17;3.08;;;;;;;6.11;54.23;102733.97;6163677;23;20181;-71
2022/02/27 10:10:40;;;;;;;3.20;3.10;;;;;;;6.35;53.53;102751.34;6146027;23;20586;-70
2022/02/27 10:13:07;;;;;;;3.25;3.15;;;;;;;6.10;53.73;102704.44;6180611;23;20348;-70
2022/02/27 10:15:35;;;;;;;3.83;3.72;;;;;;;6.56;53.23;102758.25;6138190;23;20649;-70
2022/02/27 10:18:17;;;;;;;3.75;3.65;;;;;;;6.66;52.79;102759.97;6097899;23;20060;-69
2022/02/27 10:20:44;;;;;;;3.40;3.30;;;;;;;6.66;51.91;102759.97;6158846;23;21069;-69
2022/02/27 10:23:11;;;;;;;3.38;3.28;;;;;;;6.75;51.27;102754.72;6151035;23;20025;-70
2022/02/27 10:25:39;;;;;;;3.72;3.53;;;;;;;6.18;52.16;102663.59;6125790;23;20251;-69
2022/02/27 10:28:07;;;;;;;3.80;3.60;;;;;;;6.92;52.66;102759.88;6156343;23;20055;-70
2022/02/27 10:30:36;;;;;;;3.42;3.33;;;;;;;6.85;52.28;102739.88;6133521;23;20021;-69
2022/02/27 10:33:09;;;;;;;3.50;3.40;;;;;;;7.05;51.72;102759.84;6143146;23;20033;-70
2022/02/27 10:35:37;;;;;;;3.60;3.50;;;;;;;7.18;50.76;102759.78;6124777;23;20151;-69
2022/02/27 10:38:07;;;;;;;3.40;3.30;;;;;;;7.26;49.06;102756.28;6163597;23;20361;-69
2022/02/27 10:40:36;;;;;;;3.70;3.60;;;;;;;7.11;51.04;102718.03;6123429;23;20837;-70
2022/02/27 10:43:08;;;;;;;3.40;3.30;;;;;;;6.76;49.33;102649.47;6118887;23;20394;-69
2022/02/27 10:45:35;;;;;;;3.60;3.50;;;;;;;7.41;49.19;102748.31;6084892;23;20039;-69
2022/02/27 10:48:02;;;;;;;3.33;3.22;;;;;;;7.47;47.78;102753.50;6158849;23;20158;-69
2022/02/27 10:50:29;;;;;;;4.47;4.28;;;;;;;6.97;47.28;102681.53;6130995;23;20075;-69
2022/02/27 10:52:55;;;;;;;3.50;3.40;;;;;;;7.48;47.99;102744.81;6167031;23;20057;-67
2022/02/27 10:55:22;;;;;;;5.05;4.85;;;;;;;7.54;48.58;102730.84;6148748;23;20527;-67
2022/02/27 10:57:50;;;;;;;3.55;3.45;;;;;;;7.73;47.07;102750.72;6122604;23;20021;-67
2022/02/27 11:00:19;;;;;;;5.63;5.32;;;;;;;7.81;45.40;102741.97;6136494;23;20323;-68
2022/02/27 11:02:51;;;;;;;3.70;3.60;;;;;;;7.87;46.20;102745.38;6123331;23;20009;-68
2022/02/27 11:05:20;;;;;;;5.00;4.80;;;;;;;7.69;44.51;102725.50;6137064;23;20144;-68
2022/02/27 11:07:50;;;;;;;4.53;4.13;;;;;;;7.87;44.68;102739.31;6127546;23;20273;-68
2022/02/27 11:10:18;;;;;;;5.90;5.65;;;;;;;7.83;44.00;102722.78;6150233;23;20091;-70
2022/02/27 11:12:45;;;;;;;3.60;3.50;;;;;;;7.36;45.16;102670.00;6134891;23;20481;-69
2022/02/27 11:15:15;;;;;;;3.58;3.47;;;;;;;7.56;44.38;102680.31;6133493;23;20056;-71
2022/02/27 11:17:44;;;;;;;4.78;4.47;;;;;;;7.92;44.96;102716.63;6149020;23;20028;-66
2022/02/27 11:20:14;;;;;;;3.95;3.80;;;;;;;7.68;44.86;102637.53;6131627;23;20028;-66
2022/02/27 11:22:40;;;;;;;4.13;3.92;;;;;;;8.17;45.09;102709.41;6137403;23;20041;-67